Time,TemperatureF,DewpointF,PressureIn,WindDirection,WindDirectionDegrees,WindSpeedMPH,WindSpeedGustMPH,Humidity,HourlyPrecipIn,Conditions,Clouds,dailyrainin,SoftwareType,DateUTC
2013-03-13 00:02:00,53.6,37.8,30.16,WSW,251,3.0,5.0,55,0.00,,,0.00,meteohub,2013-03-13 07:02:00,
2013-03-13 00:22:00,52.7,38.3,30.16,West,280,3.0,4.0,58,0.00,,,0.00,meteohub,2013-03-13 07:22:00,
2013-03-13 00:42:00,52.5,38.7,30.16,West,280,0.0,0.0,59,0.00,,,0.00,meteohub,2013-03-13 07:42:00,
2013-03-13 01:02:00,52.9,39.4,30.16,West,280,0.0,0.0,60,0.00,,,0.00,meteohub,2013-03-13 08:02:00,
2013-03-13 01:22:00,52.0,38.5,30.16,West,280,0.0,0.0,60,0.00,,,0.00,meteohub,2013-03-13 08:22:00,
2013-03-13 01:42:00,51.3,38.7,30.16,West,280,0.0,0.0,62,0.00,,,0.00,meteohub,2013-03-13 08:42:00,
2013-03-13 02:02:00,50.4,37.8,30.16,West,280,0.0,0.0,62,0.00,,,0.00,meteohub,2013-03-13 09:02:00,
2013-03-13 02:22:00,50.7,40.1,30.16,West,280,0.0,4.0,67,0.00,,,0.00,meteohub,2013-03-13 09:22:00,
2013-03-13 02:42:00,50.7,40.1,30.16,West,280,0.0,0.0,67,0.00,,,0.00,meteohub,2013-03-13 09:42:00,
2013-03-13 03:02:00,51.6,42.1,30.16,West,280,0.0,0.0,70,0.00,,,0.00,meteohub,2013-03-13 10:02:00,
2013-03-13 03:22:00,52.2,42.6,30.13,West,280,0.0,4.0,70,0.00,,,0.00,meteohub,2013-03-13 10:22:00,
2013-03-13 03:42:00,52.3,42.8,30.16,SSW,203,3.0,0.0,70,0.00,,,0.00,meteohub,2013-03-13 10:42:00,
2013-03-13 04:02:00,52.0,42.8,30.13,West,274,2.0,4.0,71,0.00,,,0.00,meteohub,2013-03-13 11:02:00,
2013-03-13 04:22:00,51.8,43.0,30.13,West,280,0.0,4.0,72,0.00,,,0.00,meteohub,2013-03-13 11:22:00,
2013-03-13 04:42:00,52.2,44.1,30.16,West,279,0.0,0.0,74,0.00,,,0.00,meteohub,2013-03-13 11:42:00,
2013-03-13 05:02:00,52.3,44.2,30.13,West,278,3.0,0.0,74,0.00,,,0.00,meteohub,2013-03-13 12:02:00,
2013-03-13 05:22:00,51.8,43.7,30.13,ESE,117,0.0,3.0,74,0.00,,,0.00,meteohub,2013-03-13 12:22:00,
2013-03-13 05:42:00,51.4,43.7,30.13,ESE,111,0.0,0.0,75,0.00,,,0.00,meteohub,2013-03-13 12:42:00,
2013-03-13 06:02:00,50.9,43.3,30.13,East,80,0.0,0.0,75,0.00,,,0.00,meteohub,2013-03-13 13:02:00,
2013-03-13 06:22:00,50.0,42.4,30.13,East,79,0.0,0.0,75,0.00,,,0.00,meteohub,2013-03-13 13:22:00,
2013-03-13 06:42:00,49.5,42.3,30.16,East,80,0.0,0.0,76,0.00,,,0.00,meteohub,2013-03-13 13:42:00,
2013-03-13 08:22:00,52.9,47.8,30.16,WSW,246,0.0,4.0,83,0.00,,,0.00,meteohub,2013-03-13 15:22:00,
2013-03-13 08:42:00,53.2,47.8,30.16,SW,227,3.0,4.0,82,0.00,,,0.00,meteohub,2013-03-13 15:42:00,
2013-03-13 09:02:00,53.1,48.0,30.19,SW,229,3.0,5.0,83,0.00,,,0.00,meteohub,2013-03-13 16:02:00,
2013-03-13 09:22:00,52.9,48.6,30.19,South,176,4.0,6.0,85,0.00,,,0.00,meteohub,2013-03-13 16:22:00,
2013-03-13 09:42:00,53.8,50.4,30.19,SSW,205,3.0,5.0,88,0.00,,,0.00,meteohub,2013-03-13 16:42:00,
2013-03-13 10:02:00,53.6,50.2,30.19,SW,231,5.0,6.0,88,0.00,,,0.00,meteohub,2013-03-13 17:02:00,
2013-03-13 10:22:00,54.1,51.6,30.19,SW,218,6.0,6.0,91,0.00,,,0.00,meteohub,2013-03-13 17:22:00,
2013-03-13 10:42:00,54.7,53.1,30.19,West,267,4.0,8.0,94,0.00,,,0.00,meteohub,2013-03-13 17:42:00,
2013-03-13 11:02:00,56.1,54.1,30.19,West,278,5.0,6.0,93,0.00,,,0.00,meteohub,2013-03-13 18:02:00,
2013-03-13 11:22:00,57.9,55.9,30.19,South,171,4.0,6.0,93,0.00,,,0.00,meteohub,2013-03-13 18:22:00,
2013-03-13 11:42:00,58.1,41.0,30.19,West,263,3.0,6.0,53,0.00,,,0.00,meteohub,2013-03-13 18:42:00,
2013-03-13 12:02:00,58.5,34.9,30.19,WSW,242,6.0,8.0,41,0.00,,,0.00,meteohub,2013-03-13 19:02:00,
2013-03-13 12:22:00,59.0,35.4,30.19,SW,234,8.0,8.0,41,0.00,,,0.00,meteohub,2013-03-13 19:22:00,
2013-03-13 12:42:00,60.3,35.2,30.19,SW,218,4.0,8.0,39,0.00,,,0.00,meteohub,2013-03-13 19:42:00,
2013-03-13 13:02:00,59.5,34.5,30.16,SW,231,6.0,9.0,39,0.00,,,0.00,meteohub,2013-03-13 20:02:00,
2013-03-13 13:22:00,61.7,35.2,30.16,SW,218,5.0,8.0,37,0.00,,,0.00,meteohub,2013-03-13 20:22:00,
2013-03-13 13:42:00,61.3,34.2,30.16,WSW,250,6.0,8.0,36,0.00,,,0.00,meteohub,2013-03-13 20:42:00,
2013-03-13 14:02:00,61.0,34.5,30.16,West,268,8.0,9.0,37,0.00,,,0.00,meteohub,2013-03-13 21:02:00,
2013-03-13 14:22:00,60.4,34.7,30.13,SW,229,3.0,9.0,38,0.00,,,0.00,meteohub,2013-03-13 21:22:00,
2013-03-13 14:42:00,60.3,35.8,30.13,SW,228,8.0,11.0,40,0.00,,,0.00,meteohub,2013-03-13 21:42:00,
2013-03-13 15:02:00,60.6,36.9,30.13,WSW,244,8.0,9.0,41,0.00,,,0.00,meteohub,2013-03-13 22:02:00,
2013-03-13 15:22:00,62.2,35.6,30.13,WSW,247,8.0,9.0,37,0.00,,,0.00,meteohub,2013-03-13 22:22:00,
2013-03-13 15:42:00,63.5,35.4,30.13,WSW,257,5.0,9.0,35,0.00,,,0.00,meteohub,2013-03-13 22:42:00,
2013-03-13 16:02:00,63.9,35.6,30.13,West,279,5.0,8.0,35,0.00,,,0.00,meteohub,2013-03-13 23:02:00,
2013-03-13 16:22:00,63.1,35.8,30.13,WSW,256,6.0,9.0,36,0.00,,,0.00,meteohub,2013-03-13 23:22:00,
2013-03-13 16:42:00,65.7,36.5,30.13,SW,230,6.0,8.0,34,0.00,,,0.00,meteohub,2013-03-13 23:42:00,
2013-03-13 17:02:00,65.5,36.3,30.10,SSW,199,5.0,6.0,34,0.00,,,0.00,meteohub,2013-03-14 00:02:00,
2013-03-13 17:22:00,67.6,37.6,30.10,SSW,213,4.0,5.0,33,0.00,,,0.00,meteohub,2013-03-14 00:22:00,
2013-03-13 17:42:00,67.1,37.0,30.10,South,176,5.0,8.0,33,0.00,,,0.00,meteohub,2013-03-14 00:42:00,
2013-03-13 18:02:00,66.4,36.3,30.10,SSE,162,6.0,8.0,33,0.00,,,0.00,meteohub,2013-03-14 01:02:00,
2013-03-13 18:22:00,63.7,35.6,30.13,South,180,5.0,8.0,35,0.00,,,0.00,meteohub,2013-03-14 01:22:00,
2013-03-13 18:42:00,60.6,34.2,30.13,South,183,5.0,6.0,37,0.00,,,0.00,meteohub,2013-03-14 01:42:00,
2013-03-13 19:02:00,58.1,36.9,30.13,SW,228,5.0,7.0,45,0.00,,,0.00,meteohub,2013-03-14 02:02:00,
2013-03-13 19:22:00,56.7,38.3,30.13,SW,231,3.0,6.0,50,0.00,,,0.00,meteohub,2013-03-14 02:22:00,
2013-03-13 19:42:00,55.6,38.3,30.13,South,179,2.0,6.0,52,0.00,,,0.00,meteohub,2013-03-14 02:42:00,
2013-03-13 20:02:00,55.0,38.3,30.16,South,169,8.0,8.0,53,0.00,,,0.00,meteohub,2013-03-14 03:02:00,
2013-03-13 20:22:00,54.9,39.0,30.16,SSE,156,6.0,8.0,55,0.00,,,0.00,meteohub,2013-03-14 03:22:00,
2013-03-13 20:42:00,54.7,39.4,30.16,SSE,168,5.0,8.0,56,0.00,,,0.00,meteohub,2013-03-14 03:42:00,
2013-03-13 21:02:00,54.3,40.3,30.16,South,180,5.0,6.0,59,0.00,,,0.00,meteohub,2013-03-14 04:02:00,
2013-03-13 21:22:00,54.0,42.8,30.16,SSW,211,4.0,8.0,66,0.00,,,0.00,meteohub,2013-03-14 04:22:00,
2013-03-13 21:42:00,53.8,45.3,30.16,SSW,198,3.0,6.0,73,0.00,,,0.00,meteohub,2013-03-14 04:42:00,
2013-03-13 22:02:00,53.6,46.6,30.16,SSW,207,3.0,6.0,77,0.00,,,0.00,meteohub,2013-03-14 05:02:00,
2013-03-13 22:22:00,53.4,47.1,30.16,South,181,4.0,8.0,79,0.00,,,0.00,meteohub,2013-03-14 05:22:00,
2013-03-13 22:42:00,53.2,47.5,30.16,South,177,4.0,6.0,81,0.00,,,0.00,meteohub,2013-03-14 05:42:00,
2013-03-13 23:02:00,53.2,48.2,30.16,SW,228,3.0,8.0,83,0.00,,,0.00,meteohub,2013-03-14 06:02:00,
2013-03-13 23:22:00,53.1,48.7,30.19,SW,215,2.0,8.0,85,0.00,,,0.00,meteohub,2013-03-14 06:22:00,
2013-03-13 23:42:00,52.9,48.6,30.19,SW,224,5.0,5.0,85,0.00,,,0.00,meteohub,2013-03-14 06:42:00,